sensor_id;sensor_type;location;lat;lon;timestamp;P1;durP1;ratioP1;P2;durP2;ratioP2
42866;SDS011;39461;40.948;73.006;2023-03-13T00:00:20;1.92;;;1.23;;
42866;SDS011;39461;40.948;73.006;2023-03-13T00:02:53;2.97;;;1.27;;
42866;SDS011;39461;40.948;73.006;2023-03-13T00:05:26;2.85;;;1.52;;
42866;SDS011;39461;40.948;73.006;2023-03-13T00:08:00;5.25;;;1.20;;
42866;SDS011;39461;40.948;73.006;2023-03-13T00:10:38;3.08;;;1.10;;
42866;SDS011;39461;40.948;73.006;2023-03-13T00:13:11;2.50;;;1.02;;
42866;SDS011;39461;40.948;73.006;2023-03-13T00:15:44;2.63;;;1.20;;
42866;SDS011;39461;40.948;73.006;2023-03-13T00:18:19;2.88;;;0.90;;
42866;SDS011;39461;40.948;73.006;2023-03-13T00:21:01;2.38;;;1.00;;
42866;SDS011;39461;40.948;73.006;2023-03-13T00:23:40;3.13;;;1.10;;
42866;SDS011;39461;40.948;73.006;2023-03-13T00:26:17;6.30;;;1.70;;
42866;SDS011;39461;40.948;73.006;2023-03-13T00:28:44;3.00;;;1.00;;
42866;SDS011;39461;40.948;73.006;2023-03-13T00:31:23;4.05;;;1.10;;
42866;SDS011;39461;40.948;73.006;2023-03-13T00:33:59;2.38;;;1.13;;
42866;SDS011;39461;40.948;73.006;2023-03-13T00:36:36;4.00;;;1.63;;
42866;SDS011;39461;40.948;73.006;2023-03-13T00:39:11;4.35;;;1.67;;
42866;SDS011;39461;40.948;73.006;2023-03-13T00:41:46;3.15;;;1.40;;
42866;SDS011;39461;40.948;73.006;2023-03-13T00:44:22;3.78;;;1.20;;
42866;SDS011;39461;40.948;73.006;2023-03-13T00:46:57;4.68;;;1.73;;
42866;SDS011;39461;40.948;73.006;2023-03-13T00:49:32;2.35;;;1.40;;
42866;SDS011;39461;40.948;73.006;2023-03-13T00:52:07;4.32;;;2.78;;
42866;SDS011;39461;40.948;73.006;2023-03-13T00:57:41;8.40;;;4.45;;
42866;SDS011;39461;40.948;73.006;2023-03-13T01:00:17;7.30;;;4.00;;
42866;SDS011;39461;40.948;73.006;2023-03-13T01:02:52;6.00;;;3.35;;
42866;SDS011;39461;40.948;73.006;2023-03-13T01:08:25;6.38;;;2.58;;
42866;SDS011;39461;40.948;73.006;2023-03-13T01:11:03;6.35;;;2.97;;
42866;SDS011;39461;40.948;73.006;2023-03-13T01:16:37;17.55;;;6.50;;
42866;SDS011;39461;40.948;73.006;2023-03-13T01:19:13;12.77;;;7.50;;
42866;SDS011;39461;40.948;73.006;2023-03-13T01:21:49;14.27;;;9.20;;
42866;SDS011;39461;40.948;73.006;2023-03-13T01:24:24;14.02;;;7.43;;
42866;SDS011;39461;40.948;73.006;2023-03-13T01:26:59;46.40;;;24.05;;
42866;SDS011;39461;40.948;73.006;2023-03-13T01:32:33;14.30;;;7.63;;
42866;SDS011;39461;40.948;73.006;2023-03-13T01:35:08;13.63;;;7.20;;
42866;SDS011;39461;40.948;73.006;2023-03-13T01:37:44;12.73;;;6.35;;
42866;SDS011;39461;40.948;73.006;2023-03-13T01:40:17;11.35;;;5.20;;
42866;SDS011;39461;40.948;73.006;2023-03-13T01:42:57;8.50;;;4.20;;
42866;SDS011;39461;40.948;73.006;2023-03-13T01:45:53;10.23;;;6.28;;
42866;SDS011;39461;40.948;73.006;2023-03-13T01:48:33;10.20;;;5.47;;
42866;SDS011;39461;40.948;73.006;2023-03-13T01:51:10;10.98;;;5.25;;
42866;SDS011;39461;40.948;73.006;2023-03-13T01:53:45;29.58;;;10.98;;
42866;SDS011;39461;40.948;73.006;2023-03-13T01:56:20;28.05;;;14.32;;
42866;SDS011;39461;40.948;73.006;2023-03-13T01:59:00;34.95;;;16.70;;
42866;SDS011;39461;40.948;73.006;2023-03-13T02:01:34;37.03;;;18.73;;
42866;SDS011;39461;40.948;73.006;2023-03-13T02:04:13;28.95;;;14.55;;
42866;SDS011;39461;40.948;73.006;2023-03-13T02:06:47;36.88;;;17.52;;
42866;SDS011;39461;40.948;73.006;2023-03-13T02:09:21;24.38;;;13.35;;
42866;SDS011;39461;40.948;73.006;2023-03-13T02:11:58;22.83;;;12.77;;
42866;SDS011;39461;40.948;73.006;2023-03-13T02:14:36;30.30;;;15.77;;
42866;SDS011;39461;40.948;73.006;2023-03-13T02:17:10;38.65;;;19.90;;
42866;SDS011;39461;40.948;73.006;2023-03-13T02:19:49;39.05;;;19.88;;
42866;SDS011;39461;40.948;73.006;2023-03-13T02:25:05;34.25;;;17.25;;
42866;SDS011;39461;40.948;73.006;2023-03-13T02:27:36;24.73;;;12.02;;
42866;SDS011;39461;40.948;73.006;2023-03-13T02:30:03;22.48;;;10.18;;
42866;SDS011;39461;40.948;73.006;2023-03-13T02:32:37;20.42;;;9.52;;
42866;SDS011;39461;40.948;73.006;2023-03-13T02:35:13;26.73;;;12.57;;
42866;SDS011;39461;40.948;73.006;2023-03-13T02:37:50;35.50;;;14.18;;
42866;SDS011;39461;40.948;73.006;2023-03-13T02:40:34;31.75;;;13.30;;
42866;SDS011;39461;40.948;73.006;2023-03-13T02:43:11;28.35;;;12.70;;
42866;SDS011;39461;40.948;73.006;2023-03-13T02:48:53;23.58;;;9.02;;
42866;SDS011;39461;40.948;73.006;2023-03-13T02:54:03;16.52;;;9.32;;
42866;SDS011;39461;40.948;73.006;2023-03-13T02:56:38;16.48;;;9.80;;
42866;SDS011;39461;40.948;73.006;2023-03-13T02:59:13;19.55;;;9.25;;
42866;SDS011;39461;40.948;73.006;2023-03-13T03:01:46;22.23;;;10.38;;
42866;SDS011;39461;40.948;73.006;2023-03-13T03:04:25;18.63;;;9.52;;
42866;SDS011;39461;40.948;73.006;2023-03-13T03:07:00;18.02;;;9.40;;
42866;SDS011;39461;40.948;73.006;2023-03-13T03:09:35;18.45;;;10.00;;
42866;SDS011;39461;40.948;73.006;2023-03-13T03:12:09;15.70;;;6.90;;
42866;SDS011;39461;40.948;73.006;2023-03-13T03:14:42;17.98;;;8.43;;
42866;SDS011;39461;40.948;73.006;2023-03-13T03:17:15;12.90;;;6.43;;
42866;SDS011;39461;40.948;73.006;2023-03-13T03:19:50;9.90;;;6.25;;
42866;SDS011;39461;40.948;73.006;2023-03-13T03:22:23;11.18;;;5.90;;
42866;SDS011;39461;40.948;73.006;2023-03-13T03:27:56;11.75;;;6.15;;
42866;SDS011;39461;40.948;73.006;2023-03-13T03:30:34;13.38;;;5.38;;
42866;SDS011;39461;40.948;73.006;2023-03-13T03:33:09;10.60;;;5.68;;
42866;SDS011;39461;40.948;73.006;2023-03-13T03:35:44;12.30;;;6.18;;
42866;SDS011;39461;40.948;73.006;2023-03-13T03:38:17;10.32;;;6.38;;
42866;SDS011;39461;40.948;73.006;2023-03-13T03:40:50;9.13;;;6.05;;
42866;SDS011;39461;40.948;73.006;2023-03-13T03:43:23;10.60;;;4.45;;
42866;SDS011;39461;40.948;73.006;2023-03-13T03:45:57;11.52;;;6.45;;
42866;SDS011;39461;40.948;73.006;2023-03-13T03:48:32;8.48;;;5.07;;
42866;SDS011;39461;40.948;73.006;2023-03-13T03:51:05;9.00;;;6.10;;
42866;SDS011;39461;40.948;73.006;2023-03-13T03:53:40;7.68;;;4.28;;
42866;SDS011;39461;40.948;73.006;2023-03-13T03:56:16;9.85;;;4.95;;
42866;SDS011;39461;40.948;73.006;2023-03-13T03:58:50;9.63;;;5.07;;
42866;SDS011;39461;40.948;73.006;2023-03-13T04:01:25;8.77;;;5.47;;
42866;SDS011;39461;40.948;73.006;2023-03-13T04:03:58;9.48;;;4.90;;
42866;SDS011;39461;40.948;73.006;2023-03-13T04:06:33;7.57;;;4.90;;
42866;SDS011;39461;40.948;73.006;2023-03-13T04:09:08;12.45;;;4.72;;
42866;SDS011;39461;40.948;73.006;2023-03-13T04:11:44;6.55;;;4.00;;
42866;SDS011;39461;40.948;73.006;2023-03-13T04:14:19;7.47;;;3.80;;
42866;SDS011;39461;40.948;73.006;2023-03-13T04:16:52;5.85;;;3.53;;
42866;SDS011;39461;40.948;73.006;2023-03-13T04:19:27;5.20;;;3.75;;
42866;SDS011;39461;40.948;73.006;2023-03-13T04:22:07;8.48;;;4.03;;
42866;SDS011;39461;40.948;73.006;2023-03-13T04:24:42;9.60;;;5.68;;
42866;SDS011;39461;40.948;73.006;2023-03-13T04:27:09;12.25;;;5.97;;
42866;SDS011;39461;40.948;73.006;2023-03-13T04:29:38;7.90;;;4.60;;
42866;SDS011;39461;40.948;73.006;2023-03-13T04:32:11;8.55;;;5.00;;
42866;SDS011;39461;40.948;73.006;2023-03-13T04:34:46;8.30;;;4.68;;
42866;SDS011;39461;40.948;73.006;2023-03-13T04:37:21;5.60;;;4.10;;
42866;SDS011;39461;40.948;73.006;2023-03-13T04:39:58;9.02;;;3.22;;
42866;SDS011;39461;40.948;73.006;2023-03-13T04:42:34;4.45;;;2.35;;
42866;SDS011;39461;40.948;73.006;2023-03-13T04:45:09;8.38;;;1.95;;
42866;SDS011;39461;40.948;73.006;2023-03-13T04:47:45;2.55;;;1.52;;
42866;SDS011;39461;40.948;73.006;2023-03-13T04:50:20;2.80;;;1.33;;
42866;SDS011;39461;40.948;73.006;2023-03-13T04:52:55;22.33;;;2.63;;
42866;SDS011;39461;40.948;73.006;2023-03-13T04:55:32;1.52;;;1.10;;
42866;SDS011;39461;40.948;73.006;2023-03-13T04:58:05;3.00;;;0.93;;
42866;SDS011;39461;40.948;73.006;2023-03-13T05:00:40;3.13;;;1.05;;
42866;SDS011;39461;40.948;73.006;2023-03-13T05:03:14;4.40;;;1.08;;
42866;SDS011;39461;40.948;73.006;2023-03-13T05:05:47;2.20;;;1.05;;
42866;SDS011;39461;40.948;73.006;2023-03-13T05:08:20;4.00;;;0.90;;
42866;SDS011;39461;40.948;73.006;2023-03-13T05:10:53;2.28;;;1.17;;
42866;SDS011;39461;40.948;73.006;2023-03-13T05:13:28;2.30;;;1.25;;
42866;SDS011;39461;40.948;73.006;2023-03-13T05:16:05;3.78;;;1.50;;
42866;SDS011;39461;40.948;73.006;2023-03-13T05:18:39;4.32;;;1.50;;
42866;SDS011;39461;40.948;73.006;2023-03-13T05:21:14;2.78;;;1.17;;
42866;SDS011;39461;40.948;73.006;2023-03-13T05:23:47;4.22;;;1.58;;
42866;SDS011;39461;40.948;73.006;2023-03-13T05:26:22;4.22;;;1.50;;
42866;SDS011;39461;40.948;73.006;2023-03-13T05:28:55;2.92;;;1.58;;
42866;SDS011;39461;40.948;73.006;2023-03-13T05:31:30;5.13;;;1.77;;
42866;SDS011;39461;40.948;73.006;2023-03-13T05:34:05;5.63;;;1.90;;
42866;SDS011;39461;40.948;73.006;2023-03-13T05:36:38;3.97;;;1.70;;
42866;SDS011;39461;40.948;73.006;2023-03-13T05:39:23;3.65;;;1.73;;
42866;SDS011;39461;40.948;73.006;2023-03-13T05:41:58;4.55;;;1.85;;
42866;SDS011;39461;40.948;73.006;2023-03-13T05:44:31;4.35;;;1.60;;
42866;SDS011;39461;40.948;73.006;2023-03-13T05:47:08;3.33;;;1.77;;
42866;SDS011;39461;40.948;73.006;2023-03-13T05:49:43;3.55;;;1.73;;
42866;SDS011;39461;40.948;73.006;2023-03-13T05:52:18;3.40;;;1.83;;
42866;SDS011;39461;40.948;73.006;2023-03-13T05:54:53;2.65;;;1.40;;
42866;SDS011;39461;40.948;73.006;2023-03-13T05:57:28;2.67;;;1.58;;
42866;SDS011;39461;40.948;73.006;2023-03-13T06:00:07;4.40;;;1.85;;
42866;SDS011;39461;40.948;73.006;2023-03-13T06:02:48;2.45;;;1.27;;
42866;SDS011;39461;40.948;73.006;2023-03-13T06:05:22;4.82;;;1.52;;
42866;SDS011;39461;40.948;73.006;2023-03-13T06:07:59;3.63;;;1.63;;
42866;SDS011;39461;40.948;73.006;2023-03-13T06:10:34;3.00;;;1.65;;
42866;SDS011;39461;40.948;73.006;2023-03-13T06:13:09;4.35;;;1.60;;
42866;SDS011;39461;40.948;73.006;2023-03-13T06:15:42;2.38;;;1.42;;
42866;SDS011;39461;40.948;73.006;2023-03-13T06:18:15;3.63;;;1.80;;
42866;SDS011;39461;40.948;73.006;2023-03-13T06:20:58;3.28;;;1.92;;
42866;SDS011;39461;40.948;73.006;2023-03-13T06:23:33;5.10;;;2.00;;
42866;SDS011;39461;40.948;73.006;2023-03-13T06:26:07;3.47;;;1.85;;
42866;SDS011;39461;40.948;73.006;2023-03-13T06:28:38;2.67;;;1.25;;
42866;SDS011;39461;40.948;73.006;2023-03-13T06:31:07;3.80;;;1.50;;
42866;SDS011;39461;40.948;73.006;2023-03-13T06:33:42;3.25;;;1.63;;
42866;SDS011;39461;40.948;73.006;2023-03-13T06:36:18;1.92;;;1.08;;
42866;SDS011;39461;40.948;73.006;2023-03-13T06:38:51;3.30;;;0.93;;
42866;SDS011;39461;40.948;73.006;2023-03-13T06:41:26;3.25;;;1.10;;
42866;SDS011;39461;40.948;73.006;2023-03-13T06:44:01;5.32;;;1.15;;
42866;SDS011;39461;40.948;73.006;2023-03-13T06:49:35;2.80;;;1.00;;
42866;SDS011;39461;40.948;73.006;2023-03-13T06:52:09;1.75;;;0.90;;
42866;SDS011;39461;40.948;73.006;2023-03-13T06:54:42;7.05;;;1.10;;
42866;SDS011;39461;40.948;73.006;2023-03-13T06:57:15;1.23;;;0.90;;
42866;SDS011;39461;40.948;73.006;2023-03-13T07:02:46;5.97;;;0.90;;
42866;SDS011;39461;40.948;73.006;2023-03-13T07:05:21;1.60;;;0.93;;
42866;SDS011;39461;40.948;73.006;2023-03-13T07:07:56;2.15;;;0.90;;
42866;SDS011;39461;40.948;73.006;2023-03-13T07:10:29;6.40;;;1.50;;
42866;SDS011;39461;40.948;73.006;2023-03-13T07:13:05;2.60;;;0.90;;
42866;SDS011;39461;40.948;73.006;2023-03-13T07:15:38;2.20;;;1.08;;
42866;SDS011;39461;40.948;73.006;2023-03-13T07:18:11;2.08;;;0.95;;
42866;SDS011;39461;40.948;73.006;2023-03-13T07:20:44;1.63;;;0.88;;
42866;SDS011;39461;40.948;73.006;2023-03-13T07:23:17;3.10;;;0.73;;
42866;SDS011;39461;40.948;73.006;2023-03-13T07:25:51;2.55;;;1.00;;
42866;SDS011;39461;40.948;73.006;2023-03-13T07:28:25;1.30;;;0.80;;
42866;SDS011;39461;40.948;73.006;2023-03-13T07:33:58;2.35;;;0.75;;
42866;SDS011;39461;40.948;73.006;2023-03-13T07:36:31;1.33;;;0.63;;
42866;SDS011;39461;40.948;73.006;2023-03-13T07:39:08;2.63;;;1.10;;
42866;SDS011;39461;40.948;73.006;2023-03-13T07:41:41;2.60;;;0.80;;
42866;SDS011;39461;40.948;73.006;2023-03-13T07:44:16;3.08;;;0.93;;
42866;SDS011;39461;40.948;73.006;2023-03-13T07:46:51;3.67;;;1.05;;
42866;SDS011;39461;40.948;73.006;2023-03-13T07:49:26;1.55;;;0.90;;
42866;SDS011;39461;40.948;73.006;2023-03-13T07:52:01;1.42;;;0.70;;
42866;SDS011;39461;40.948;73.006;2023-03-13T07:54:35;1.45;;;0.95;;
42866;SDS011;39461;40.948;73.006;2023-03-13T07:57:08;1.85;;;0.93;;
42866;SDS011;39461;40.948;73.006;2023-03-13T08:02:45;1.88;;;0.80;;
42866;SDS011;39461;40.948;73.006;2023-03-13T08:05:19;2.03;;;0.57;;
42866;SDS011;39461;40.948;73.006;2023-03-13T08:07:52;2.88;;;0.90;;
42866;SDS011;39461;40.948;73.006;2023-03-13T08:10:27;3.42;;;0.80;;
42866;SDS011;39461;40.948;73.006;2023-03-13T08:13:03;19.63;;;3.22;;
42866;SDS011;39461;40.948;73.006;2023-03-13T08:15:36;2.47;;;0.75;;
42866;SDS011;39461;40.948;73.006;2023-03-13T08:18:11;5.15;;;0.77;;
42866;SDS011;39461;40.948;73.006;2023-03-13T08:20:46;2.00;;;0.68;;
42866;SDS011;39461;40.948;73.006;2023-03-13T08:23:21;1.25;;;0.57;;
42866;SDS011;39461;40.948;73.006;2023-03-13T08:25:54;1.17;;;0.60;;
42866;SDS011;39461;40.948;73.006;2023-03-13T08:28:29;0.90;;;0.70;;
42866;SDS011;39461;40.948;73.006;2023-03-13T08:30:56;2.25;;;0.77;;
42866;SDS011;39461;40.948;73.006;2023-03-13T08:33:29;2.35;;;0.85;;
42866;SDS011;39461;40.948;73.006;2023-03-13T08:36:13;0.80;;;0.65;;
42866;SDS011;39461;40.948;73.006;2023-03-13T08:38:50;3.15;;;1.00;;
42866;SDS011;39461;40.948;73.006;2023-03-13T08:41:26;1.92;;;0.63;;
42866;SDS011;39461;40.948;73.006;2023-03-13T08:44:03;2.67;;;0.98;;
42866;SDS011;39461;40.948;73.006;2023-03-13T08:46:43;4.10;;;0.70;;
42866;SDS011;39461;40.948;73.006;2023-03-13T08:49:18;1.30;;;0.63;;
42866;SDS011;39461;40.948;73.006;2023-03-13T08:51:53;6.95;;;0.82;;
42866;SDS011;39461;40.948;73.006;2023-03-13T08:54:29;1.70;;;0.80;;
42866;SDS011;39461;40.948;73.006;2023-03-13T08:57:06;3.42;;;0.95;;
42866;SDS011;39461;40.948;73.006;2023-03-13T08:59:39;3.13;;;0.90;;
42866;SDS011;39461;40.948;73.006;2023-03-13T09:02:13;1.85;;;0.75;;
42866;SDS011;39461;40.948;73.006;2023-03-13T09:04:50;1.88;;;0.90;;
42866;SDS011;39461;40.948;73.006;2023-03-13T09:07:28;18.23;;;15.10;;
42866;SDS011;39461;40.948;73.006;2023-03-13T09:10:03;4.28;;;1.60;;
42866;SDS011;39461;40.948;73.006;2023-03-13T09:12:36;1.95;;;0.90;;
42866;SDS011;39461;40.948;73.006;2023-03-13T09:15:10;5.05;;;0.98;;
42866;SDS011;39461;40.948;73.006;2023-03-13T09:17:45;2.67;;;1.00;;
42866;SDS011;39461;40.948;73.006;2023-03-13T09:20:18;8.65;;;1.50;;
42866;SDS011;39461;40.948;73.006;2023-03-13T09:22:51;2.65;;;1.05;;
42866;SDS011;39461;40.948;73.006;2023-03-13T09:25:24;3.63;;;0.80;;
42866;SDS011;39461;40.948;73.006;2023-03-13T09:27:58;1.63;;;0.70;;
42866;SDS011;39461;40.948;73.006;2023-03-13T09:30:33;2.92;;;0.95;;
42866;SDS011;39461;40.948;73.006;2023-03-13T09:33:08;1.25;;;0.68;;
42866;SDS011;39461;40.948;73.006;2023-03-13T09:35:43;6.22;;;1.35;;
42866;SDS011;39461;40.948;73.006;2023-03-13T09:38:23;6.50;;;1.48;;
42866;SDS011;39461;40.948;73.006;2023-03-13T09:41:04;4.05;;;1.17;;
42866;SDS011;39461;40.948;73.006;2023-03-13T09:49:16;7.30;;;2.05;;
42866;SDS011;39461;40.948;73.006;2023-03-13T09:52:03;5.00;;;1.30;;
42866;SDS011;39461;40.948;73.006;2023-03-13T09:54:51;6.65;;;1.60;;
42866;SDS011;39461;40.948;73.006;2023-03-13T10:02:56;6.88;;;3.90;;
42866;SDS011;39461;40.948;73.006;2023-03-13T10:05:30;10.43;;;3.92;;
42866;SDS011;39461;40.948;73.006;2023-03-13T10:13:36;2.53;;;1.13;;
42866;SDS011;39461;40.948;73.006;2023-03-13T10:16:13;5.80;;;1.05;;
42866;SDS011;39461;40.948;73.006;2023-03-13T10:18:47;5.53;;;1.33;;
42866;SDS011;39461;40.948;73.006;2023-03-13T10:21:30;3.22;;;0.93;;
42866;SDS011;39461;40.948;73.006;2023-03-13T10:24:18;8.75;;;1.50;;
42866;SDS011;39461;40.948;73.006;2023-03-13T10:26:55;3.63;;;1.85;;
42866;SDS011;39461;40.948;73.006;2023-03-13T10:29:28;3.13;;;1.38;;
42866;SDS011;39461;40.948;73.006;2023-03-13T10:32:03;3.45;;;1.10;;
42866;SDS011;39461;40.948;73.006;2023-03-13T10:34:48;3.00;;;1.00;;
42866;SDS011;39461;40.948;73.006;2023-03-13T10:37:24;4.88;;;1.23;;
42866;SDS011;39461;40.948;73.006;2023-03-13T10:40:32;8.95;;;1.75;;
42866;SDS011;39461;40.948;73.006;2023-03-13T10:43:03;4.93;;;1.50;;
42866;SDS011;39461;40.948;73.006;2023-03-13T10:45:37;5.05;;;1.90;;
42866;SDS011;39461;40.948;73.006;2023-03-13T10:48:19;4.78;;;2.30;;
42866;SDS011;39461;40.948;73.006;2023-03-13T10:50:53;4.82;;;2.47;;
42866;SDS011;39461;40.948;73.006;2023-03-13T10:56:13;5.93;;;2.72;;
42866;SDS011;39461;40.948;73.006;2023-03-13T10:58:47;3.67;;;2.10;;
42866;SDS011;39461;40.948;73.006;2023-03-13T11:03:57;7.80;;;2.92;;
42866;SDS011;39461;40.948;73.006;2023-03-13T11:06:39;9.02;;;2.50;;
42866;SDS011;39461;40.948;73.006;2023-03-13T11:09:13;8.18;;;2.72;;
42866;SDS011;39461;40.948;73.006;2023-03-13T11:11:50;3.35;;;1.70;;
42866;SDS011;39461;40.948;73.006;2023-03-13T11:14:26;5.40;;;1.75;;
42866;SDS011;39461;40.948;73.006;2023-03-13T11:17:04;4.38;;;1.67;;
42866;SDS011;39461;40.948;73.006;2023-03-13T11:19:57;4.13;;;1.90;;
42866;SDS011;39461;40.948;73.006;2023-03-13T11:31:35;2.88;;;1.77;;
42866;SDS011;39461;40.948;73.006;2023-03-13T11:34:14;5.53;;;2.40;;
42866;SDS011;39461;40.948;73.006;2023-03-13T11:37:00;6.20;;;2.55;;
42866;SDS011;39461;40.948;73.006;2023-03-13T11:42:36;4.25;;;1.80;;
42866;SDS011;39461;40.948;73.006;2023-03-13T11:56:14;9.32;;;4.72;;
42866;SDS011;39461;40.948;73.006;2023-03-13T12:01:37;7.10;;;2.20;;
42866;SDS011;39461;40.948;73.006;2023-03-13T12:04:14;6.35;;;2.75;;
42866;SDS011;39461;40.948;73.006;2023-03-13T12:09:40;8.63;;;2.50;;
42866;SDS011;39461;40.948;73.006;2023-03-13T12:12:17;9.43;;;3.42;;
42866;SDS011;39461;40.948;73.006;2023-03-13T12:17:37;6.22;;;3.53;;
42866;SDS011;39461;40.948;73.006;2023-03-13T12:26:24;7.07;;;3.03;;
42866;SDS011;39461;40.948;73.006;2023-03-13T12:31:41;14.95;;;2.58;;
42866;SDS011;39461;40.948;73.006;2023-03-13T12:39:47;5.40;;;2.40;;
42866;SDS011;39461;40.948;73.006;2023-03-13T12:44:56;11.27;;;2.78;;
42866;SDS011;39461;40.948;73.006;2023-03-13T12:47:50;9.55;;;3.00;;
42866;SDS011;39461;40.948;73.006;2023-03-13T13:01:51;18.05;;;5.35;;
42866;SDS011;39461;40.948;73.006;2023-03-13T13:04:27;11.25;;;6.07;;
42866;SDS011;39461;40.948;73.006;2023-03-13T13:07:04;20.23;;;9.73;;
42866;SDS011;39461;40.948;73.006;2023-03-13T13:09:38;23.17;;;10.38;;
42866;SDS011;39461;40.948;73.006;2023-03-13T13:12:32;20.23;;;8.38;;
42866;SDS011;39461;40.948;73.006;2023-03-13T13:25:55;21.20;;;7.60;;
42866;SDS011;39461;40.948;73.006;2023-03-13T13:28:33;20.45;;;7.97;;
42866;SDS011;39461;40.948;73.006;2023-03-13T13:31:43;29.50;;;8.93;;
42866;SDS011;39461;40.948;73.006;2023-03-13T13:34:02;32.85;;;8.52;;
42866;SDS011;39461;40.948;73.006;2023-03-13T13:36:41;34.15;;;10.23;;
42866;SDS011;39461;40.948;73.006;2023-03-13T13:53:46;48.58;;;13.25;;
42866;SDS011;39461;40.948;73.006;2023-03-13T14:04:58;114.45;;;42.20;;
42866;SDS011;39461;40.948;73.006;2023-03-13T14:13:01;113.70;;;35.13;;
42866;SDS011;39461;40.948;73.006;2023-03-13T14:15:41;92.40;;;31.05;;
42866;SDS011;39461;40.948;73.006;2023-03-13T14:18:18;121.70;;;47.00;;
42866;SDS011;39461;40.948;73.006;2023-03-13T14:23:35;124.13;;;67.50;;
42866;SDS011;39461;40.948;73.006;2023-03-13T14:26:22;121.20;;;64.63;;
42866;SDS011;39461;40.948;73.006;2023-03-13T14:28:55;114.45;;;63.63;;
42866;SDS011;39461;40.948;73.006;2023-03-13T14:31:32;124.10;;;64.63;;
42866;SDS011;39461;40.948;73.006;2023-03-13T14:34:08;154.85;;;70.88;;
42866;SDS011;39461;40.948;73.006;2023-03-13T14:39:37;127.20;;;70.45;;
42866;SDS011;39461;40.948;73.006;2023-03-13T14:42:16;125.75;;;68.93;;
42866;SDS011;39461;40.948;73.006;2023-03-13T14:44:50;129.43;;;67.45;;
42866;SDS011;39461;40.948;73.006;2023-03-13T14:47:25;103.80;;;57.58;;
42866;SDS011;39461;40.948;73.006;2023-03-13T14:50:08;105.35;;;58.72;;
42866;SDS011;39461;40.948;73.006;2023-03-13T14:52:44;84.40;;;49.38;;
42866;SDS011;39461;40.948;73.006;2023-03-13T14:58:04;92.25;;;52.40;;
42866;SDS011;39461;40.948;73.006;2023-03-13T15:00:41;115.72;;;65.00;;
42866;SDS011;39461;40.948;73.006;2023-03-13T15:06:02;84.95;;;52.00;;
42866;SDS011;39461;40.948;73.006;2023-03-13T15:08:38;83.13;;;51.22;;
42866;SDS011;39461;40.948;73.006;2023-03-13T15:11:19;83.30;;;49.63;;
42866;SDS011;39461;40.948;73.006;2023-03-13T15:13:54;72.28;;;43.60;;
42866;SDS011;39461;40.948;73.006;2023-03-13T15:16:29;69.32;;;40.58;;
42866;SDS011;39461;40.948;73.006;2023-03-13T15:19:04;69.75;;;38.17;;
42866;SDS011;39461;40.948;73.006;2023-03-13T15:21:40;55.15;;;34.95;;
42866;SDS011;39461;40.948;73.006;2023-03-13T15:24:15;58.80;;;35.03;;
42866;SDS011;39461;40.948;73.006;2023-03-13T15:26:51;59.88;;;34.45;;
42866;SDS011;39461;40.948;73.006;2023-03-13T15:29:26;61.20;;;36.65;;
42866;SDS011;39461;40.948;73.006;2023-03-13T15:31:59;53.90;;;33.33;;
42866;SDS011;39461;40.948;73.006;2023-03-13T15:34:35;53.83;;;31.60;;
42866;SDS011;39461;40.948;73.006;2023-03-13T15:37:10;69.35;;;37.22;;
42866;SDS011;39461;40.948;73.006;2023-03-13T15:39:44;58.45;;;35.78;;
42866;SDS011;39461;40.948;73.006;2023-03-13T15:42:17;54.75;;;32.05;;
42866;SDS011;39461;40.948;73.006;2023-03-13T15:44:51;58.67;;;28.48;;
42866;SDS011;39461;40.948;73.006;2023-03-13T15:47:26;48.08;;;28.13;;
42866;SDS011;39461;40.948;73.006;2023-03-13T15:49:59;52.30;;;27.65;;
42866;SDS011;39461;40.948;73.006;2023-03-13T15:52:32;56.72;;;29.63;;
42866;SDS011;39461;40.948;73.006;2023-03-13T15:55:11;57.50;;;29.52;;
42866;SDS011;39461;40.948;73.006;2023-03-13T15:57:48;62.75;;;30.90;;
42866;SDS011;39461;40.948;73.006;2023-03-13T16:00:24;37.90;;;22.70;;
42866;SDS011;39461;40.948;73.006;2023-03-13T16:02:58;38.80;;;22.95;;
42866;SDS011;39461;40.948;73.006;2023-03-13T16:05:31;42.63;;;23.63;;
42866;SDS011;39461;40.948;73.006;2023-03-13T16:08:04;39.25;;;23.75;;
42866;SDS011;39461;40.948;73.006;2023-03-13T16:10:41;38.90;;;23.48;;
42866;SDS011;39461;40.948;73.006;2023-03-13T16:13:17;38.17;;;22.90;;
42866;SDS011;39461;40.948;73.006;2023-03-13T16:15:53;33.47;;;19.88;;
42866;SDS011;39461;40.948;73.006;2023-03-13T16:18:29;33.45;;;17.92;;
42866;SDS011;39461;40.948;73.006;2023-03-13T16:21:04;31.20;;;18.67;;
42866;SDS011;39461;40.948;73.006;2023-03-13T16:23:38;32.80;;;19.15;;
42866;SDS011;39461;40.948;73.006;2023-03-13T16:26:15;28.65;;;18.15;;
42866;SDS011;39461;40.948;73.006;2023-03-13T16:28:42;31.73;;;15.60;;
42866;SDS011;39461;40.948;73.006;2023-03-13T16:31:14;22.45;;;13.55;;
42866;SDS011;39461;40.948;73.006;2023-03-13T16:33:50;22.60;;;12.90;;
42866;SDS011;39461;40.948;73.006;2023-03-13T16:36:26;20.52;;;11.40;;
42866;SDS011;39461;40.948;73.006;2023-03-13T16:39:04;18.77;;;10.98;;
42866;SDS011;39461;40.948;73.006;2023-03-13T16:41:40;21.70;;;9.02;;
42866;SDS011;39461;40.948;73.006;2023-03-13T16:44:13;19.02;;;8.95;;
42866;SDS011;39461;40.948;73.006;2023-03-13T16:46:46;17.05;;;8.95;;
42866;SDS011;39461;40.948;73.006;2023-03-13T16:49:19;16.00;;;7.95;;
42866;SDS011;39461;40.948;73.006;2023-03-13T16:51:54;16.10;;;8.85;;
42866;SDS011;39461;40.948;73.006;2023-03-13T16:54:29;13.93;;;7.70;;
42866;SDS011;39461;40.948;73.006;2023-03-13T16:57:08;14.18;;;7.82;;
42866;SDS011;39461;40.948;73.006;2023-03-13T16:59:41;16.42;;;8.30;;
42866;SDS011;39461;40.948;73.006;2023-03-13T17:02:17;12.80;;;6.72;;
42866;SDS011;39461;40.948;73.006;2023-03-13T17:04:54;15.40;;;6.95;;
42866;SDS011;39461;40.948;73.006;2023-03-13T17:07:29;13.57;;;7.20;;
42866;SDS011;39461;40.948;73.006;2023-03-13T17:10:26;11.15;;;5.78;;
42866;SDS011;39461;40.948;73.006;2023-03-13T17:12:59;13.65;;;6.55;;
42866;SDS011;39461;40.948;73.006;2023-03-13T17:15:35;15.27;;;6.03;;
42866;SDS011;39461;40.948;73.006;2023-03-13T17:18:09;12.27;;;5.75;;
42866;SDS011;39461;40.948;73.006;2023-03-13T17:20:48;13.25;;;7.25;;
42866;SDS011;39461;40.948;73.006;2023-03-13T17:23:23;15.45;;;5.75;;
42866;SDS011;39461;40.948;73.006;2023-03-13T17:25:58;12.80;;;5.70;;
42866;SDS011;39461;40.948;73.006;2023-03-13T17:28:33;13.43;;;6.28;;
42866;SDS011;39461;40.948;73.006;2023-03-13T17:31:09;13.93;;;6.18;;
42866;SDS011;39461;40.948;73.006;2023-03-13T17:33:44;12.05;;;5.93;;
42866;SDS011;39461;40.948;73.006;2023-03-13T17:36:21;15.45;;;5.78;;
42866;SDS011;39461;40.948;73.006;2023-03-13T17:38:55;14.57;;;6.05;;
42866;SDS011;39461;40.948;73.006;2023-03-13T17:41:29;13.32;;;6.47;;
42866;SDS011;39461;40.948;73.006;2023-03-13T17:44:03;13.15;;;5.55;;
42866;SDS011;39461;40.948;73.006;2023-03-13T17:46:47;12.82;;;6.50;;
42866;SDS011;39461;40.948;73.006;2023-03-13T17:52:22;16.27;;;6.95;;
42866;SDS011;39461;40.948;73.006;2023-03-13T17:54:56;13.45;;;6.82;;
42866;SDS011;39461;40.948;73.006;2023-03-13T17:57:29;15.35;;;7.45;;
42866;SDS011;39461;40.948;73.006;2023-03-13T18:00:15;17.85;;;8.30;;
42866;SDS011;39461;40.948;73.006;2023-03-13T18:02:49;14.57;;;7.20;;
42866;SDS011;39461;40.948;73.006;2023-03-13T18:05:25;11.40;;;6.15;;